sensor_id;sensor_type;location;lat;lon;timestamp;pressure;altitude;pressure_sealevel;temperature;humidity
20003;BME280;10162;41.600;23.806;2023-04-27T00:02:06;94630.22;;;4.97;100.00
20003;BME280;10162;41.600;23.806;2023-04-27T00:04:32;94651.75;;;4.98;100.00
20003;BME280;10162;41.600;23.806;2023-04-27T00:06:58;94631.44;;;4.87;100.00
20003;BME280;10162;41.600;23.806;2023-04-27T00:09:23;94611.69;;;4.63;100.00
20003;BME280;10162;41.600;23.806;2023-04-27T00:12:22;94647.09;;;4.93;100.00
20003;BME280;10162;41.600;23.806;2023-04-27T00:14:48;94625.25;;;4.65;100.00
20003;BME280;10162;41.600;23.806;2023-04-27T00:17:13;94626.06;;;4.66;100.00
20003;BME280;10162;41.600;23.806;2023-04-27T00:22:48;94610.97;;;4.77;100.00
20003;BME280;10162;41.600;23.806;2023-04-27T00:25:13;94613.94;;;5.12;100.00
20003;BME280;10162;41.600;23.806;2023-04-27T00:27:39;94620.28;;;5.09;100.00
20003;BME280;10162;41.600;23.806;2023-04-27T00:34:00;94622.84;;;4.86;100.00
20003;BME280;10162;41.600;23.806;2023-04-27T00:36:26;94612.34;;;4.88;100.00
20003;BME280;10162;41.600;23.806;2023-04-27T00:38:52;94622.56;;;4.81;100.00
20003;BME280;10162;41.600;23.806;2023-04-27T00:41:51;94635.19;;;4.53;100.00
20003;BME280;10162;41.600;23.806;2023-04-27T00:44:25;94640.19;;;4.86;100.00
20003;BME280;10162;41.600;23.806;2023-04-27T00:46:52;94610.34;;;4.67;100.00
20003;BME280;10162;41.600;23.806;2023-04-27T00:49:22;94619.69;;;4.76;100.00
20003;BME280;10162;41.600;23.806;2023-04-27T00:52:19;94640.41;;;4.76;100.00
20003;BME280;10162;41.600;23.806;2023-04-27T00:54:49;94633.91;;;4.80;100.00
20003;BME280;10162;41.600;23.806;2023-04-27T00:57:15;94624.44;;;4.65;100.00
20003;BME280;10162;41.600;23.806;2023-04-27T00:59:42;94646.97;;;5.32;100.00
20003;BME280;10162;41.600;23.806;2023-04-27T01:02:09;94641.94;;;4.63;100.00
20003;BME280;10162;41.600;23.806;2023-04-27T01:04:37;94648.03;;;4.39;100.00
20003;BME280;10162;41.600;23.806;2023-04-27T01:07:03;94604.19;;;4.06;100.00
20003;BME280;10162;41.600;23.806;2023-04-27T01:09:30;94639.16;;;4.33;100.00
20003;BME280;10162;41.600;23.806;2023-04-27T01:15:50;94643.31;;;4.73;100.00
20003;BME280;10162;41.600;23.806;2023-04-27T01:18:16;94663.75;;;4.29;100.00
20003;BME280;10162;41.600;23.806;2023-04-27T01:24:36;94656.03;;;4.60;100.00
20003;BME280;10162;41.600;23.806;2023-04-27T01:27:04;94654.66;;;4.41;100.00
20003;BME280;10162;41.600;23.806;2023-04-27T01:29:30;94663.91;;;4.36;100.00
20003;BME280;10162;41.600;23.806;2023-04-27T01:35:05;94638.91;;;4.20;100.00
20003;BME280;10162;41.600;23.806;2023-04-27T01:37:32;94657.47;;;4.63;100.00
20003;BME280;10162;41.600;23.806;2023-04-27T01:43:03;94674.47;;;4.26;100.00
20003;BME280;10162;41.600;23.806;2023-04-27T01:45:29;94657.38;;;4.09;100.00
20003;BME280;10162;41.600;23.806;2023-04-27T01:47:55;94655.09;;;4.14;100.00
20003;BME280;10162;41.600;23.806;2023-04-27T01:50:37;94663.75;;;4.29;100.00
20003;BME280;10162;41.600;23.806;2023-04-27T01:53:05;94663.31;;;4.18;100.00
20003;BME280;10162;41.600;23.806;2023-04-27T01:55:31;94660.53;;;4.27;100.00
20003;BME280;10162;41.600;23.806;2023-04-27T01:57:57;94670.31;;;4.48;100.00
20003;BME280;10162;41.600;23.806;2023-04-27T02:00:29;94665.97;;;4.40;100.00
20003;BME280;10162;41.600;23.806;2023-04-27T02:02:55;94662.56;;;4.01;100.00
20003;BME280;10162;41.600;23.806;2023-04-27T02:05:22;94660.44;;;4.04;100.00
20003;BME280;10162;41.600;23.806;2023-04-27T02:07:48;94658.72;;;4.36;100.00
20003;BME280;10162;41.600;23.806;2023-04-27T02:10:29;94673.25;;;3.82;100.00
20003;BME280;10162;41.600;23.806;2023-04-27T02:12:56;94672.09;;;4.00;100.00
20003;BME280;10162;41.600;23.806;2023-04-27T02:15:22;94680.88;;;3.83;100.00
20003;BME280;10162;41.600;23.806;2023-04-27T02:17:49;94677.31;;;3.92;100.00
20003;BME280;10162;41.600;23.806;2023-04-27T02:24:09;94672.59;;;3.88;100.00
20003;BME280;10162;41.600;23.806;2023-04-27T02:26:35;94674.53;;;4.02;100.00
20003;BME280;10162;41.600;23.806;2023-04-27T02:29:02;94679.06;;;4.39;100.00
20003;BME280;10162;41.600;23.806;2023-04-27T02:31:37;94672.19;;;4.23;100.00
20003;BME280;10162;41.600;23.806;2023-04-27T02:34:03;94680.81;;;4.54;100.00
20003;BME280;10162;41.600;23.806;2023-04-27T02:36:29;94687.50;;;4.41;100.00
20003;BME280;10162;41.600;23.806;2023-04-27T02:38:56;94684.16;;;4.16;100.00
20003;BME280;10162;41.600;23.806;2023-04-27T02:41:39;94692.94;;;4.07;100.00
20003;BME280;10162;41.600;23.806;2023-04-27T02:44:07;94699.22;;;4.04;100.00
20003;BME280;10162;41.600;23.806;2023-04-27T02:46:32;94679.22;;;3.98;100.00
20003;BME280;10162;41.600;23.806;2023-04-27T02:49:02;94684.88;;;3.94;100.00
20003;BME280;10162;41.600;23.806;2023-04-27T02:51:30;94686.88;;;3.76;100.00
20003;BME280;10162;41.600;23.806;2023-04-27T02:53:56;94684.28;;;3.67;100.00
20003;BME280;10162;41.600;23.806;2023-04-27T02:56:22;94701.72;;;3.65;100.00
20003;BME280;10162;41.600;23.806;2023-04-27T02:58:47;94692.69;;;3.61;100.00
20003;BME280;10162;41.600;23.806;2023-04-27T03:05:08;94697.47;;;4.05;100.00
20003;BME280;10162;41.600;23.806;2023-04-27T03:07:35;94713.34;;;3.53;100.00
20003;BME280;10162;41.600;23.806;2023-04-27T03:13:56;94714.97;;;3.62;100.00
20003;BME280;10162;41.600;23.806;2023-04-27T03:16:22;94708.38;;;3.52;100.00
20003;BME280;10162;41.600;23.806;2023-04-27T03:18:47;94722.09;;;3.68;100.00
20003;BME280;10162;41.600;23.806;2023-04-27T03:25:07;94712.88;;;3.66;100.00
20003;BME280;10162;41.600;23.806;2023-04-27T03:27:33;94702.72;;;3.40;100.00
20003;BME280;10162;41.600;23.806;2023-04-27T03:30:09;94706.25;;;3.55;100.00
20003;BME280;10162;41.600;23.806;2023-04-27T03:32:35;94722.03;;;4.09;100.00
20003;BME280;10162;41.600;23.806;2023-04-27T03:35:01;94723.78;;;4.16;100.00
20003;BME280;10162;41.600;23.806;2023-04-27T03:37:27;94733.06;;;3.70;100.00
20003;BME280;10162;41.600;23.806;2023-04-27T03:40:11;94743.75;;;3.76;100.00
20003;BME280;10162;41.600;23.806;2023-04-27T03:42:37;94734.38;;;3.58;100.00
20003;BME280;10162;41.600;23.806;2023-04-27T03:45:03;94732.41;;;3.77;100.00
20003;BME280;10162;41.600;23.806;2023-04-27T03:47:30;94735.91;;;4.24;100.00
20003;BME280;10162;41.600;23.806;2023-04-27T03:53:28;94746.97;;;3.69;100.00
20003;BME280;10162;41.600;23.806;2023-04-27T03:55:55;94761.03;;;3.67;100.00
20003;BME280;10162;41.600;23.806;2023-04-27T03:58:21;94749.25;;;3.64;100.00
20003;BME280;10162;41.600;23.806;2023-04-27T04:04:15;94758.28;;;3.93;100.00
20003;BME280;10162;41.600;23.806;2023-04-27T04:06:41;94771.34;;;4.15;100.00
20003;BME280;10162;41.600;23.806;2023-04-27T04:09:07;94772.78;;;4.18;100.00
20003;BME280;10162;41.600;23.806;2023-04-27T04:11:35;94788.47;;;4.08;100.00
20003;BME280;10162;41.600;23.806;2023-04-27T04:14:03;94752.59;;;3.49;100.00
20003;BME280;10162;41.600;23.806;2023-04-27T04:16:29;94767.94;;;3.99;100.00
20003;BME280;10162;41.600;23.806;2023-04-27T04:18:55;94781.84;;;3.90;100.00
20003;BME280;10162;41.600;23.806;2023-04-27T04:25:15;94780.25;;;3.97;100.00
20003;BME280;10162;41.600;23.806;2023-04-27T04:27:41;94777.59;;;4.37;100.00
20003;BME280;10162;41.600;23.806;2023-04-27T04:33:38;94797.66;;;4.90;100.00
20003;BME280;10162;41.600;23.806;2023-04-27T04:36:06;94805.97;;;5.17;100.00
20003;BME280;10162;41.600;23.806;2023-04-27T04:38:32;94799.75;;;4.95;100.00
20003;BME280;10162;41.600;23.806;2023-04-27T04:41:08;94801.41;;;4.88;100.00
20003;BME280;10162;41.600;23.806;2023-04-27T04:43:36;94805.25;;;5.00;100.00
20003;BME280;10162;41.600;23.806;2023-04-27T04:46:04;94807.91;;;5.15;100.00
20003;BME280;10162;41.600;23.806;2023-04-27T04:48:33;94803.63;;;5.30;100.00
20003;BME280;10162;41.600;23.806;2023-04-27T04:51:19;94826.75;;;5.39;100.00
20003;BME280;10162;41.600;23.806;2023-04-27T04:53:44;94817.09;;;5.25;100.00
20003;BME280;10162;41.600;23.806;2023-04-27T04:56:11;94833.19;;;5.44;100.00
20003;BME280;10162;41.600;23.806;2023-04-27T04:58:39;94810.13;;;5.57;100.00
20003;BME280;10162;41.600;23.806;2023-04-27T05:04:20;94806.75;;;6.02;100.00
20003;BME280;10162;41.600;23.806;2023-04-27T05:06:46;94825.03;;;6.08;100.00
20003;BME280;10162;41.600;23.806;2023-04-27T05:09:12;94840.44;;;6.47;100.00
20003;BME280;10162;41.600;23.806;2023-04-27T05:11:46;94819.06;;;6.75;100.00
20003;BME280;10162;41.600;23.806;2023-04-27T05:14:14;94809.72;;;7.10;100.00
20003;BME280;10162;41.600;23.806;2023-04-27T05:16:40;94831.09;;;7.41;100.00
20003;BME280;10162;41.600;23.806;2023-04-27T05:19:06;94830.91;;;7.42;100.00
20003;BME280;10162;41.600;23.806;2023-04-27T05:22:01;94840.41;;;7.86;100.00
20003;BME280;10162;41.600;23.806;2023-04-27T05:24:30;94821.31;;;8.00;100.00
20003;BME280;10162;41.600;23.806;2023-04-27T05:26:56;94819.22;;;8.10;100.00
20003;BME280;10162;41.600;23.806;2023-04-27T05:29:21;94821.94;;;8.45;100.00
20003;BME280;10162;41.600;23.806;2023-04-27T05:34:53;94815.59;;;8.82;99.81
20003;BME280;10162;41.600;23.806;2023-04-27T05:37:19;94821.56;;;8.76;96.20
20003;BME280;10162;41.600;23.806;2023-04-27T05:39:45;94825.94;;;9.03;95.32
20003;BME280;10162;41.600;23.806;2023-04-27T05:42:11;94818.78;;;9.18;94.20
20003;BME280;10162;41.600;23.806;2023-04-27T05:44:36;94808.16;;;9.20;93.13
20003;BME280;10162;41.600;23.806;2023-04-27T05:47:02;94811.78;;;9.19;91.93
20003;BME280;10162;41.600;23.806;2023-04-27T05:49:28;94829.59;;;9.56;91.97
20003;BME280;10162;41.600;23.806;2023-04-27T05:52:17;94834.38;;;9.52;89.58
20003;BME280;10162;41.600;23.806;2023-04-27T05:54:48;94825.00;;;9.65;88.78
20003;BME280;10162;41.600;23.806;2023-04-27T05:57:14;94808.16;;;9.67;91.06
20003;BME280;10162;41.600;23.806;2023-04-27T05:59:41;94814.44;;;9.92;89.46
20003;BME280;10162;41.600;23.806;2023-04-27T06:02:07;94812.59;;;9.86;88.55
20003;BME280;10162;41.600;23.806;2023-04-27T06:04:33;94830.91;;;10.00;86.76
20003;BME280;10162;41.600;23.806;2023-04-27T06:07:01;94815.66;;;10.10;85.78
20003;BME280;10162;41.600;23.806;2023-04-27T06:09:30;94834.72;;;9.90;83.34
20003;BME280;10162;41.600;23.806;2023-04-27T06:11:56;94837.22;;;10.38;88.83
20003;BME280;10162;41.600;23.806;2023-04-27T06:14:24;94841.03;;;10.55;86.10
20003;BME280;10162;41.600;23.806;2023-04-27T06:16:50;94833.22;;;10.29;85.10
20003;BME280;10162;41.600;23.806;2023-04-27T06:19:16;94846.66;;;10.72;85.51
20003;BME280;10162;41.600;23.806;2023-04-27T06:21:43;94823.16;;;10.46;86.39
20003;BME280;10162;41.600;23.806;2023-04-27T06:24:08;94824.56;;;10.68;87.43
20003;BME280;10162;41.600;23.806;2023-04-27T06:26:34;94845.66;;;10.73;89.89
20003;BME280;10162;41.600;23.806;2023-04-27T06:29:00;94845.47;;;10.55;83.46
20003;BME280;10162;41.600;23.806;2023-04-27T06:31:34;94842.28;;;10.53;87.58
20003;BME280;10162;41.600;23.806;2023-04-27T06:34:00;94832.00;;;10.25;83.88
20003;BME280;10162;41.600;23.806;2023-04-27T06:36:26;94826.38;;;10.41;84.78
20003;BME280;10162;41.600;23.806;2023-04-27T07:50:49;94833.56;;;13.68;59.12
20003;BME280;10162;41.600;23.806;2023-04-27T07:53:15;94830.38;;;14.25;60.73
20003;BME280;10162;41.600;23.806;2023-04-27T07:55:41;94826.19;;;14.36;57.37
20003;BME280;10162;41.600;23.806;2023-04-27T07:58:09;94820.97;;;14.47;56.12
20003;BME280;10162;41.600;23.806;2023-04-27T08:00:35;94826.00;;;14.37;53.36
20003;BME280;10162;41.600;23.806;2023-04-27T08:03:02;94837.81;;;14.70;54.76
20003;BME280;10162;41.600;23.806;2023-04-27T08:05:28;94834.97;;;14.60;52.90
20003;BME280;10162;41.600;23.806;2023-04-27T08:07:54;94839.41;;;14.59;54.09
20003;BME280;10162;41.600;23.806;2023-04-27T08:10:20;94839.56;;;14.34;55.67
20003;BME280;10162;41.600;23.806;2023-04-27T08:12:50;94830.56;;;14.42;53.23
20003;BME280;10162;41.600;23.806;2023-04-27T08:15:16;94833.09;;;14.19;53.99
20003;BME280;10162;41.600;23.806;2023-04-27T08:17:42;94834.31;;;14.87;53.22
20003;BME280;10162;41.600;23.806;2023-04-27T08:20:08;94827.78;;;15.13;55.85
20003;BME280;10162;41.600;23.806;2023-04-27T08:22:41;94847.34;;;15.06;55.05
20003;BME280;10162;41.600;23.806;2023-04-27T08:25:08;94833.72;;;15.32;56.33
20003;BME280;10162;41.600;23.806;2023-04-27T08:27:40;94828.44;;;15.44;52.63
20003;BME280;10162;41.600;23.806;2023-04-27T08:30:07;94830.53;;;15.30;52.68
20003;BME280;10162;41.600;23.806;2023-04-27T08:32:34;94814.72;;;15.42;51.27
20003;BME280;10162;41.600;23.806;2023-04-27T08:35:00;94819.38;;;15.51;51.56
20003;BME280;10162;41.600;23.806;2023-04-27T08:37:25;94796.50;;;15.52;49.22
20003;BME280;10162;41.600;23.806;2023-04-27T08:39:51;94810.19;;;15.77;51.19
20003;BME280;10162;41.600;23.806;2023-04-27T08:42:17;94827.38;;;15.68;51.39
20003;BME280;10162;41.600;23.806;2023-04-27T08:44:43;94831.41;;;15.47;52.14
20003;BME280;10162;41.600;23.806;2023-04-27T08:47:09;94812.19;;;15.47;51.92
20003;BME280;10162;41.600;23.806;2023-04-27T08:49:36;94818.91;;;15.78;52.29
20003;BME280;10162;41.600;23.806;2023-04-27T08:52:18;94822.50;;;15.60;50.30
20003;BME280;10162;41.600;23.806;2023-04-27T08:54:44;94828.25;;;15.85;49.65
20003;BME280;10162;41.600;23.806;2023-04-27T08:57:13;94799.34;;;15.90;50.90
20003;BME280;10162;41.600;23.806;2023-04-27T08:59:40;94811.34;;;16.71;50.85
20003;BME280;10162;41.600;23.806;2023-04-27T09:02:19;94826.22;;;16.61;49.39
20003;BME280;10162;41.600;23.806;2023-04-27T09:04:46;94820.59;;;16.57;48.75
20003;BME280;10162;41.600;23.806;2023-04-27T09:07:12;94824.09;;;16.46;47.41
20003;BME280;10162;41.600;23.806;2023-04-27T09:09:40;94818.91;;;16.51;48.71
20003;BME280;10162;41.600;23.806;2023-04-27T09:12:32;94827.59;;;16.97;46.74
20003;BME280;10162;41.600;23.806;2023-04-27T09:14:59;94815.72;;;16.99;48.05
20003;BME280;10162;41.600;23.806;2023-04-27T09:17:26;94815.34;;;16.90;43.16
20003;BME280;10162;41.600;23.806;2023-04-27T09:20:06;94817.16;;;17.23;46.82
20003;BME280;10162;41.600;23.806;2023-04-27T09:22:51;94810.38;;;16.77;45.60
20003;BME280;10162;41.600;23.806;2023-04-27T09:25:31;94811.03;;;16.68;47.72
20003;BME280;10162;41.600;23.806;2023-04-27T09:27:59;94827.31;;;16.98;47.44
20003;BME280;10162;41.600;23.806;2023-04-27T09:30:26;94809.16;;;16.51;46.90
20003;BME280;10162;41.600;23.806;2023-04-27T09:32:57;94818.72;;;16.58;48.27
20003;BME280;10162;41.600;23.806;2023-04-27T09:35:28;94825.22;;;16.50;47.96
20003;BME280;10162;41.600;23.806;2023-04-27T09:37:54;94817.03;;;16.35;47.27
20003;BME280;10162;41.600;23.806;2023-04-27T09:40:22;94814.22;;;16.70;47.41
20003;BME280;10162;41.600;23.806;2023-04-27T09:42:56;94796.91;;;16.29;46.35
20003;BME280;10162;41.600;23.806;2023-04-27T09:45:24;94799.09;;;16.20;49.88
20003;BME280;10162;41.600;23.806;2023-04-27T09:47:50;94781.59;;;15.86;46.72
20003;BME280;10162;41.600;23.806;2023-04-27T09:50:16;94792.47;;;16.18;47.17
20003;BME280;10162;41.600;23.806;2023-04-27T09:52:42;94815.03;;;16.25;47.04
20003;BME280;10162;41.600;23.806;2023-04-27T09:55:10;94782.91;;;16.28;48.03
20003;BME280;10162;41.600;23.806;2023-04-27T09:57:52;94783.94;;;16.27;48.84
20003;BME280;10162;41.600;23.806;2023-04-27T10:00:53;94804.09;;;16.33;48.77
20003;BME280;10162;41.600;23.806;2023-04-27T10:08:59;94798.97;;;17.49;46.05
20003;BME280;10162;41.600;23.806;2023-04-27T10:11:40;94804.06;;;16.78;45.70
20003;BME280;10162;41.600;23.806;2023-04-27T10:14:07;94797.69;;;16.74;48.57
20003;BME280;10162;41.600;23.806;2023-04-27T10:16:53;94800.78;;;16.88;45.68
20003;BME280;10162;41.600;23.806;2023-04-27T10:19:20;94784.59;;;17.40;43.69
20003;BME280;10162;41.600;23.806;2023-04-27T10:22:00;94795.47;;;17.60;43.09
20003;BME280;10162;41.600;23.806;2023-04-27T10:24:33;94788.88;;;17.24;43.80
20003;BME280;10162;41.600;23.806;2023-04-27T10:27:02;94783.31;;;17.04;43.66
20003;BME280;10162;41.600;23.806;2023-04-27T10:29:35;94771.31;;;17.56;41.36
20003;BME280;10162;41.600;23.806;2023-04-27T10:32:17;94784.66;;;17.45;42.79
20003;BME280;10162;41.600;23.806;2023-04-27T10:34:44;94787.69;;;18.50;43.40
20003;BME280;10162;41.600;23.806;2023-04-27T10:37:12;94774.72;;;18.54;40.81
20003;BME280;10162;41.600;23.806;2023-04-27T10:39:41;94777.34;;;18.49;39.16
20003;BME280;10162;41.600;23.806;2023-04-27T10:42:07;94771.72;;;18.45;41.10
20003;BME280;10162;41.600;23.806;2023-04-27T10:44:35;94785.91;;;18.93;41.24
20003;BME280;10162;41.600;23.806;2023-04-27T10:47:15;94779.84;;;18.34;40.33
20003;BME280;10162;41.600;23.806;2023-04-27T10:49:42;94771.69;;;18.40;40.35
20003;BME280;10162;41.600;23.806;2023-04-27T10:52:08;94759.97;;;18.95;40.46
20003;BME280;10162;41.600;23.806;2023-04-27T10:54:35;94781.38;;;18.30;42.46
20003;BME280;10162;41.600;23.806;2023-04-27T10:57:06;94761.38;;;18.12;42.90
20003;BME280;10162;41.600;23.806;2023-04-27T10:59:33;94783.31;;;17.86;41.83
20003;BME280;10162;41.600;23.806;2023-04-27T11:01:59;94784.19;;;18.18;41.69
20003;BME280;10162;41.600;23.806;2023-04-27T11:04:38;94762.59;;;17.99;41.75
20003;BME280;10162;41.600;23.806;2023-04-27T11:07:09;94777.50;;;18.37;41.11
20003;BME280;10162;41.600;23.806;2023-04-27T11:09:36;94774.38;;;18.45;41.96
20003;BME280;10162;41.600;23.806;2023-04-27T11:12:10;94764.16;;;17.73;41.50
20003;BME280;10162;41.600;23.806;2023-04-27T11:14:36;94775.16;;;18.14;42.67
20003;BME280;10162;41.600;23.806;2023-04-27T11:17:03;94761.69;;;17.67;40.22
20003;BME280;10162;41.600;23.806;2023-04-27T11:19:30;94764.66;;;17.10;41.32
20003;BME280;10162;41.600;23.806;2023-04-27T11:22:04;94764.78;;;17.20;42.14
20003;BME280;10162;41.600;23.806;2023-04-27T11:24:31;94760.69;;;17.29;42.71
20003;BME280;10162;41.600;23.806;2023-04-27T11:26:57;94768.66;;;18.00;42.22
20003;BME280;10162;41.600;23.806;2023-04-27T11:29:24;94765.34;;;18.41;41.48
20003;BME280;10162;41.600;23.806;2023-04-27T11:31:51;94773.16;;;17.99;39.94
20003;BME280;10162;41.600;23.806;2023-04-27T11:34:22;94772.22;;;17.89;42.52
20003;BME280;10162;41.600;23.806;2023-04-27T11:37:04;94781.94;;;18.58;43.50
20003;BME280;10162;41.600;23.806;2023-04-27T11:39:33;94763.97;;;17.80;42.27
20003;BME280;10162;41.600;23.806;2023-04-27T11:45:01;94774.16;;;18.20;40.05
20003;BME280;10162;41.600;23.806;2023-04-27T11:47:30;94773.72;;;17.36;39.63
20003;BME280;10162;41.600;23.806;2023-04-27T11:49:58;94758.28;;;16.89;41.30
20003;BME280;10162;41.600;23.806;2023-04-27T11:52:30;94763.53;;;17.88;42.13
20003;BME280;10162;41.600;23.806;2023-04-27T11:54:56;94767.53;;;17.69;41.09
20003;BME280;10162;41.600;23.806;2023-04-27T11:57:24;94767.66;;;17.79;41.86
20003;BME280;10162;41.600;23.806;2023-04-27T11:59:52;94765.38;;;17.66;40.03
20003;BME280;10162;41.600;23.806;2023-04-27T12:02:22;94773.97;;;17.78;39.47
20003;BME280;10162;41.600;23.806;2023-04-27T12:04:49;94758.47;;;17.21;38.46
20003;BME280;10162;41.600;23.806;2023-04-27T12:07:16;94768.81;;;17.88;39.09
20003;BME280;10162;41.600;23.806;2023-04-27T12:09:44;94764.31;;;18.42;38.29
20003;BME280;10162;41.600;23.806;2023-04-27T12:12:10;94776.88;;;18.57;36.96
20003;BME280;10162;41.600;23.806;2023-04-27T12:14:37;94765.38;;;18.73;37.89
20003;BME280;10162;41.600;23.806;2023-04-27T12:17:03;94760.69;;;19.27;38.17
20003;BME280;10162;41.600;23.806;2023-04-27T12:19:29;94737.56;;;19.70;37.25
20003;BME280;10162;41.600;23.806;2023-04-27T12:21:58;94758.78;;;19.65;35.65
20003;BME280;10162;41.600;23.806;2023-04-27T12:24:24;94781.31;;;19.72;36.56
20003;BME280;10162;41.600;23.806;2023-04-27T12:26:50;94755.69;;;20.03;37.06
20003;BME280;10162;41.600;23.806;2023-04-27T12:29:16;94762.16;;;20.43;36.49
20003;BME280;10162;41.600;23.806;2023-04-27T12:31:43;94762.16;;;20.38;34.09
20003;BME280;10162;41.600;23.806;2023-04-27T12:34:09;94769.31;;;19.60;38.12
20003;BME280;10162;41.600;23.806;2023-04-27T12:36:34;94750.28;;;19.16;37.40
20003;BME280;10162;41.600;23.806;2023-04-27T12:39:19;94768.56;;;18.43;39.05
20003;BME280;10162;41.600;23.806;2023-04-27T12:41:48;94774.00;;;18.32;41.96
20003;BME280;10162;41.600;23.806;2023-04-27T12:44:16;94777.91;;;17.97;39.83
20003;BME280;10162;41.600;23.806;2023-04-27T12:46:44;94759.25;;;16.17;45.05
20003;BME280;10162;41.600;23.806;2023-04-27T12:49:10;94770.31;;;16.19;45.49
20003;BME280;10162;41.600;23.806;2023-04-27T12:51:37;94757.97;;;15.51;45.40
20003;BME280;10162;41.600;23.806;2023-04-27T12:54:04;94760.59;;;15.62;46.29
20003;BME280;10162;41.600;23.806;2023-04-27T12:56:30;94752.19;;;15.37;47.00
20003;BME280;10162;41.600;23.806;2023-04-27T12:58:56;94773.72;;;15.22;47.10
20003;BME280;10162;41.600;23.806;2023-04-27T13:01:24;94776.47;;;15.27;47.93
20003;BME280;10162;41.600;23.806;2023-04-27T13:03:57;94787.38;;;14.50;49.01
20003;BME280;10162;41.600;23.806;2023-04-27T13:06:24;94780.38;;;14.43;48.84
20003;BME280;10162;41.600;23.806;2023-04-27T13:08:51;94768.13;;;13.96;50.26
20003;BME280;10162;41.600;23.806;2023-04-27T13:11:22;94793.84;;;13.94;52.58
20003;BME280;10162;41.600;23.806;2023-04-27T13:14:16;94796.91;;;13.24;61.70
20003;BME280;10162;41.600;23.806;2023-04-27T13:17:11;94794.97;;;12.95;68.51
20003;BME280;10162;41.600;23.806;2023-04-27T13:19:46;94813.28;;;12.27;68.98
20003;BME280;10162;41.600;23.806;2023-04-27T13:22:36;94813.69;;;11.99;78.73
20003;BME280;10162;41.600;23.806;2023-04-27T13:25:05;94819.97;;;11.34;86.38
20003;BME280;10162;41.600;23.806;2023-04-27T13:27:31;94814.53;;;11.42;97.50
20003;BME280;10162;41.600;23.806;2023-04-27T13:29:57;94787.16;;;11.89;100.00
20003;BME280;10162;41.600;23.806;2023-04-27T13:32:29;94825.94;;;12.06;100.00
20003;BME280;10162;41.600;23.806;2023-04-27T13:34:54;94815.06;;;12.02;100.00
20003;BME280;10162;41.600;23.806;2023-04-27T13:37:20;94809.44;;;11.98;100.00
20003;BME280;10162;41.600;23.806;2023-04-27T13:39:48;94799.19;;;11.52;100.00
20003;BME280;10162;41.600;23.806;2023-04-27T13:42:18;94811.31;;;11.91;100.00
20003;BME280;10162;41.600;23.806;2023-04-27T13:44:46;94816.72;;;11.96;100.00
20003;BME280;10162;41.600;23.806;2023-04-27T13:47:18;94850.25;;;11.81;100.00
20003;BME280;10162;41.600;23.806;2023-04-27T13:49:44;94860.44;;;12.34;100.00
20003;BME280;10162;41.600;23.806;2023-04-27T13:52:16;94839.31;;;12.29;95.00
20003;BME280;10162;41.600;23.806;2023-04-27T13:54:43;94862.06;;;12.35;90.00
20003;BME280;10162;41.600;23.806;2023-04-27T13:57:09;94857.03;;;11.95;95.86
20003;BME280;10162;41.600;23.806;2023-04-27T13:59:35;94871.53;;;11.91;93.58
20003;BME280;10162;41.600;23.806;2023-04-27T14:02:06;94867.53;;;11.95;91.22
20003;BME280;10162;41.600;23.806;2023-04-27T14:04:32;94892.25;;;12.06;91.50
20003;BME280;10162;41.600;23.806;2023-04-27T14:06:58;94883.25;;;11.89;90.57
20003;BME280;10162;41.600;23.806;2023-04-27T14:09:24;94886.44;;;11.97;91.88
20003;BME280;10162;41.600;23.806;2023-04-27T14:11:56;94891.56;;;11.73;91.73
20003;BME280;10162;41.600;23.806;2023-04-27T14:14:44;94889.66;;;11.99;91.64
20003;BME280;10162;41.600;23.806;2023-04-27T14:17:10;94866.84;;;12.07;93.05
20003;BME280;10162;41.600;23.806;2023-04-27T14:19:38;94871.03;;;11.63;92.86
20003;BME280;10162;41.600;23.806;2023-04-27T14:22:22;94864.53;;;12.23;89.94
20003;BME280;10162;41.600;23.806;2023-04-27T14:24:48;94881.00;;;12.62;90.08
20003;BME280;10162;41.600;23.806;2023-04-27T14:27:14;94901.31;;;12.04;91.84
20003;BME280;10162;41.600;23.806;2023-04-27T14:29:41;94905.03;;;12.59;87.82
20003;BME280;10162;41.600;23.806;2023-04-27T14:32:12;94913.50;;;12.29;89.41
20003;BME280;10162;41.600;23.806;2023-04-27T14:34:40;94895.50;;;12.02;89.23
20003;BME280;10162;41.600;23.806;2023-04-27T14:37:06;94891.00;;;12.47;88.21
20003;BME280;10162;41.600;23.806;2023-04-27T14:39:31;94914.44;;;12.41;88.85
20003;BME280;10162;41.600;23.806;2023-04-27T14:41:57;94908.16;;;12.99;87.78
20003;BME280;10162;41.600;23.806;2023-04-27T14:44:24;94905.66;;;12.86;87.30
20003;BME280;10162;41.600;23.806;2023-04-27T14:46:50;94889.97;;;13.29;84.50
20003;BME280;10162;41.600;23.806;2023-04-27T14:49:18;94899.31;;;13.43;83.59
20003;BME280;10162;41.600;23.806;2023-04-27T14:55:40;94910.28;;;14.24;78.79
20003;BME280;10162;41.600;23.806;2023-04-27T14:58:08;94929.16;;;14.81;76.19
20003;BME280;10162;41.600;23.806;2023-04-27T15:00:40;94919.03;;;15.08;73.02
20003;BME280;10162;41.600;23.806;2023-04-27T15:03:06;94917.84;;;15.04;75.60
20003;BME280;10162;41.600;23.806;2023-04-27T15:05:33;94911.81;;;15.03;73.25
20003;BME280;10162;41.600;23.806;2023-04-27T15:07:59;94915.81;;;15.17;71.83
20003;BME280;10162;41.600;23.806;2023-04-27T15:10:25;94920.50;;;15.27;71.35
20003;BME280;10162;41.600;23.806;2023-04-27T15:12:53;94921.56;;;15.38;69.21
20003;BME280;10162;41.600;23.806;2023-04-27T15:15:19;94917.69;;;15.63;69.75
20003;BME280;10162;41.600;23.806;2023-04-27T15:17:44;94933.97;;;15.60;69.20
20003;BME280;10162;41.600;23.806;2023-04-27T15:20:10;94924.63;;;15.11;68.11
20003;BME280;10162;41.600;23.806;2023-04-27T15:22:39;94941.22;;;15.00;67.59